sensor_id;sensor_type;location;lat;lon;timestamp;temperature;humidity
63371;DHT22;72561;48.336;14.472;2023-09-30T00:03:18;26.70;57.70
63371;DHT22;72561;48.336;14.472;2023-09-30T00:06:38;26.70;57.70
63371;DHT22;72561;48.336;14.472;2023-09-30T00:10:00;26.70;57.70
63371;DHT22;72561;48.336;14.472;2023-09-30T00:13:21;26.70;57.80
63371;DHT22;72561;48.336;14.472;2023-09-30T00:16:43;26.70;57.70
63371;DHT22;72561;48.336;14.472;2023-09-30T00:20:05;26.70;57.70
63371;DHT22;72561;48.336;14.472;2023-09-30T00:23:27;26.70;57.70
63371;DHT22;72561;48.336;14.472;2023-09-30T00:26:48;26.70;57.90
63371;DHT22;72561;48.336;14.472;2023-09-30T00:30:10;26.70;57.80
63371;DHT22;72561;48.336;14.472;2023-09-30T00:33:33;26.70;57.80
63371;DHT22;72561;48.336;14.472;2023-09-30T00:36:54;26.60;57.80
63371;DHT22;72561;48.336;14.472;2023-09-30T00:40:15;26.60;57.80
63371;DHT22;72561;48.336;14.472;2023-09-30T00:43:36;26.60;57.80
63371;DHT22;72561;48.336;14.472;2023-09-30T00:46:57;26.70;58.00
63371;DHT22;72561;48.336;14.472;2023-09-30T00:50:21;26.60;57.90
63371;DHT22;72561;48.336;14.472;2023-09-30T00:53:42;26.60;57.90
63371;DHT22;72561;48.336;14.472;2023-09-30T00:57:03;26.60;58.00
63371;DHT22;72561;48.336;14.472;2023-09-30T01:00:24;26.60;58.00
63371;DHT22;72561;48.336;14.472;2023-09-30T01:03:45;26.60;58.00
63371;DHT22;72561;48.336;14.472;2023-09-30T01:07:08;26.60;58.10
63371;DHT22;72561;48.336;14.472;2023-09-30T01:10:29;26.60;57.90
63371;DHT22;72561;48.336;14.472;2023-09-30T01:13:50;26.60;58.20
63371;DHT22;72561;48.336;14.472;2023-09-30T01:17:11;26.60;58.00
63371;DHT22;72561;48.336;14.472;2023-09-30T01:20:32;26.60;58.20
63371;DHT22;72561;48.336;14.472;2023-09-30T01:23:54;26.60;58.00
63371;DHT22;72561;48.336;14.472;2023-09-30T01:27:15;26.60;58.10
63371;DHT22;72561;48.336;14.472;2023-09-30T01:30:36;26.60;58.00
63371;DHT22;72561;48.336;14.472;2023-09-30T01:33:59;26.60;58.10
63371;DHT22;72561;48.336;14.472;2023-09-30T01:37:20;26.50;57.90
63371;DHT22;72561;48.336;14.472;2023-09-30T01:40:42;26.60;58.20
63371;DHT22;72561;48.336;14.472;2023-09-30T01:44:04;26.50;58.10
63371;DHT22;72561;48.336;14.472;2023-09-30T01:47:25;26.50;58.80
63371;DHT22;72561;48.336;14.472;2023-09-30T01:53:55;26.50;57.50
63371;DHT22;72561;48.336;14.472;2023-09-30T01:57:16;26.60;58.30
63371;DHT22;72561;48.336;14.472;2023-09-30T02:00:37;26.50;58.00
63371;DHT22;72561;48.336;14.472;2023-09-30T02:05:58;26.50;57.50
63371;DHT22;72561;48.336;14.472;2023-09-30T02:09:19;26.50;58.20
63371;DHT22;72561;48.336;14.472;2023-09-30T02:12:40;26.50;58.10
63371;DHT22;72561;48.336;14.472;2023-09-30T02:16:01;26.50;58.10
63371;DHT22;72561;48.336;14.472;2023-09-30T02:19:22;26.50;58.10
63371;DHT22;72561;48.336;14.472;2023-09-30T02:22:45;26.50;58.00
63371;DHT22;72561;48.336;14.472;2023-09-30T02:29:47;26.50;57.40
63371;DHT22;72561;48.336;14.472;2023-09-30T02:33:08;26.50;58.10
63371;DHT22;72561;48.336;14.472;2023-09-30T02:36:29;26.50;58.00
63371;DHT22;72561;48.336;14.472;2023-09-30T02:40:36;26.50;57.40
63371;DHT22;72561;48.336;14.472;2023-09-30T02:43:57;26.50;57.90
63371;DHT22;72561;48.336;14.472;2023-09-30T02:47:18;26.50;57.90
63371;DHT22;72561;48.336;14.472;2023-09-30T02:50:41;26.50;57.90
63371;DHT22;72561;48.336;14.472;2023-09-30T02:54:03;26.50;57.90
63371;DHT22;72561;48.336;14.472;2023-09-30T02:57:26;26.50;57.90
63371;DHT22;72561;48.336;14.472;2023-09-30T03:00:48;26.50;58.60
63371;DHT22;72561;48.336;14.472;2023-09-30T03:04:09;26.50;57.90
63371;DHT22;72561;48.336;14.472;2023-09-30T03:10:31;26.50;57.40
63371;DHT22;72561;48.336;14.472;2023-09-30T03:13:52;26.50;57.90
63371;DHT22;72561;48.336;14.472;2023-09-30T03:17:13;26.50;58.00
63371;DHT22;72561;48.336;14.472;2023-09-30T03:20:34;26.50;58.00
63371;DHT22;72561;48.336;14.472;2023-09-30T03:25:27;26.50;57.40
63371;DHT22;72561;48.336;14.472;2023-09-30T03:28:48;26.50;58.00
63371;DHT22;72561;48.336;14.472;2023-09-30T03:32:09;26.40;57.90
63371;DHT22;72561;48.336;14.472;2023-09-30T03:35:30;26.40;57.90
63371;DHT22;72561;48.336;14.472;2023-09-30T03:38:51;26.50;58.00
63371;DHT22;72561;48.336;14.472;2023-09-30T03:42:13;26.50;57.90
63371;DHT22;72561;48.336;14.472;2023-09-30T03:45:34;26.50;57.90
63371;DHT22;72561;48.336;14.472;2023-09-30T03:48:55;26.40;57.80
63371;DHT22;72561;48.336;14.472;2023-09-30T03:52:17;26.40;57.90
63371;DHT22;72561;48.336;14.472;2023-09-30T03:55:38;26.40;57.80
63371;DHT22;72561;48.336;14.472;2023-09-30T03:59:00;26.40;58.00
63371;DHT22;72561;48.336;14.472;2023-09-30T04:02:21;26.40;58.00
63371;DHT22;72561;48.336;14.472;2023-09-30T04:05:42;26.40;57.90
63371;DHT22;72561;48.336;14.472;2023-09-30T04:09:03;26.50;58.00
63371;DHT22;72561;48.336;14.472;2023-09-30T04:12:25;26.40;58.00
63371;DHT22;72561;48.336;14.472;2023-09-30T04:15:47;26.40;57.90
63371;DHT22;72561;48.336;14.472;2023-09-30T04:19:08;26.50;58.00
63371;DHT22;72561;48.336;14.472;2023-09-30T04:22:29;26.40;57.90
63371;DHT22;72561;48.336;14.472;2023-09-30T04:25:50;26.40;57.90
63371;DHT22;72561;48.336;14.472;2023-09-30T04:29:11;26.50;58.00
63371;DHT22;72561;48.336;14.472;2023-09-30T04:32:33;26.50;57.50
63371;DHT22;72561;48.336;14.472;2023-09-30T04:35:54;26.40;56.60
63371;DHT22;72561;48.336;14.472;2023-09-30T04:39:15;26.50;56.50
63371;DHT22;72561;48.336;14.472;2023-09-30T04:42:36;26.40;56.50
63371;DHT22;72561;48.336;14.472;2023-09-30T04:45:57;26.40;56.50
63371;DHT22;72561;48.336;14.472;2023-09-30T04:49:19;26.40;56.40
63371;DHT22;72561;48.336;14.472;2023-09-30T04:52:40;26.40;56.50
63371;DHT22;72561;48.336;14.472;2023-09-30T04:56:02;26.40;56.50
63371;DHT22;72561;48.336;14.472;2023-09-30T04:59:24;26.40;56.50
63371;DHT22;72561;48.336;14.472;2023-09-30T05:02:45;26.40;56.50
63371;DHT22;72561;48.336;14.472;2023-09-30T05:06:07;26.40;56.60
63371;DHT22;72561;48.336;14.472;2023-09-30T05:09:28;26.40;56.60
63371;DHT22;72561;48.336;14.472;2023-09-30T05:12:49;26.50;56.70
63371;DHT22;72561;48.336;14.472;2023-09-30T05:16:11;26.50;56.70
63371;DHT22;72561;48.336;14.472;2023-09-30T05:19:32;26.50;56.70
63371;DHT22;72561;48.336;14.472;2023-09-30T05:22:54;26.50;56.70
63371;DHT22;72561;48.336;14.472;2023-09-30T05:26:15;26.50;56.50
63371;DHT22;72561;48.336;14.472;2023-09-30T05:29:36;26.50;56.60
63371;DHT22;72561;48.336;14.472;2023-09-30T05:32:57;26.50;56.60
63371;DHT22;72561;48.336;14.472;2023-09-30T05:36:18;26.50;56.50
63371;DHT22;72561;48.336;14.472;2023-09-30T05:39:41;26.50;56.60
63371;DHT22;72561;48.336;14.472;2023-09-30T05:43:02;26.50;56.60
63371;DHT22;72561;48.336;14.472;2023-09-30T05:46:23;26.50;56.60
63371;DHT22;72561;48.336;14.472;2023-09-30T05:49:44;26.50;56.60
63371;DHT22;72561;48.336;14.472;2023-09-30T05:53:05;26.50;56.60
63371;DHT22;72561;48.336;14.472;2023-09-30T05:56:28;26.50;56.70
63371;DHT22;72561;48.336;14.472;2023-09-30T05:59:49;26.50;56.60
63371;DHT22;72561;48.336;14.472;2023-09-30T06:03:10;26.50;56.70
63371;DHT22;72561;48.336;14.472;2023-09-30T06:06:31;26.50;56.70
63371;DHT22;72561;48.336;14.472;2023-09-30T06:09:52;26.50;56.70
63371;DHT22;72561;48.336;14.472;2023-09-30T06:13:14;26.50;56.70
63371;DHT22;72561;48.336;14.472;2023-09-30T06:16:35;26.50;56.70
63371;DHT22;72561;48.336;14.472;2023-09-30T06:20:00;26.50;56.70
63371;DHT22;72561;48.336;14.472;2023-09-30T06:23:26;26.40;56.70
63371;DHT22;72561;48.336;14.472;2023-09-30T06:26:48;26.40;56.70
63371;DHT22;72561;48.336;14.472;2023-09-30T06:30:12;26.40;56.60
63371;DHT22;72561;48.336;14.472;2023-09-30T06:33:34;26.40;56.70
63371;DHT22;72561;48.336;14.472;2023-09-30T06:36:55;26.40;56.70
63371;DHT22;72561;48.336;14.472;2023-09-30T06:40:16;26.40;56.70
63371;DHT22;72561;48.336;14.472;2023-09-30T06:43:37;26.40;56.80
63371;DHT22;72561;48.336;14.472;2023-09-30T06:47:00;26.40;56.70
63371;DHT22;72561;48.336;14.472;2023-09-30T06:50:21;26.40;56.70
63371;DHT22;72561;48.336;14.472;2023-09-30T06:53:43;26.40;56.80
63371;DHT22;72561;48.336;14.472;2023-09-30T06:57:07;26.40;56.70
63371;DHT22;72561;48.336;14.472;2023-09-30T07:00:28;26.40;56.70
63371;DHT22;72561;48.336;14.472;2023-09-30T07:03:51;26.40;56.70
63371;DHT22;72561;48.336;14.472;2023-09-30T07:07:12;26.40;56.80
63371;DHT22;72561;48.336;14.472;2023-09-30T07:10:33;26.40;56.80
63371;DHT22;72561;48.336;14.472;2023-09-30T07:13:54;26.40;56.80
63371;DHT22;72561;48.336;14.472;2023-09-30T07:17:15;26.40;56.80
63371;DHT22;72561;48.336;14.472;2023-09-30T07:20:37;26.40;56.80
63371;DHT22;72561;48.336;14.472;2023-09-30T07:23:58;26.40;56.90
63371;DHT22;72561;48.336;14.472;2023-09-30T07:27:19;26.40;56.90
63371;DHT22;72561;48.336;14.472;2023-09-30T07:30:40;26.40;56.90
63371;DHT22;72561;48.336;14.472;2023-09-30T07:34:01;26.40;56.90
63371;DHT22;72561;48.336;14.472;2023-09-30T07:37:24;26.40;56.90
63371;DHT22;72561;48.336;14.472;2023-09-30T07:40:45;26.40;56.90
63371;DHT22;72561;48.336;14.472;2023-09-30T07:44:06;26.50;56.90
63371;DHT22;72561;48.336;14.472;2023-09-30T07:47:27;26.50;56.90
63371;DHT22;72561;48.336;14.472;2023-09-30T07:50:48;26.50;56.90
63371;DHT22;72561;48.336;14.472;2023-09-30T07:54:10;26.50;56.80
63371;DHT22;72561;48.336;14.472;2023-09-30T07:57:32;26.50;56.80
63371;DHT22;72561;48.336;14.472;2023-09-30T08:00:53;26.50;56.80
63371;DHT22;72561;48.336;14.472;2023-09-30T08:04:14;26.50;56.80
63371;DHT22;72561;48.336;14.472;2023-09-30T08:07:34;26.50;56.80
63371;DHT22;72561;48.336;14.472;2023-09-30T08:13:12;26.60;56.30
63371;DHT22;72561;48.336;14.472;2023-09-30T08:16:34;26.60;57.00
63371;DHT22;72561;48.336;14.472;2023-09-30T08:19:56;26.60;56.90
63371;DHT22;72561;48.336;14.472;2023-09-30T08:23:18;26.60;56.90
63371;DHT22;72561;48.336;14.472;2023-09-30T08:26:40;26.60;57.00
63371;DHT22;72561;48.336;14.472;2023-09-30T08:30:02;26.60;57.00
63371;DHT22;72561;48.336;14.472;2023-09-30T08:33:24;26.60;56.90
63371;DHT22;72561;48.336;14.472;2023-09-30T08:36:45;26.60;57.00
63371;DHT22;72561;48.336;14.472;2023-09-30T08:40:07;26.60;56.90
63371;DHT22;72561;48.336;14.472;2023-09-30T08:43:29;26.60;56.90
63371;DHT22;72561;48.336;14.472;2023-09-30T08:46:51;26.60;57.00
63371;DHT22;72561;48.336;14.472;2023-09-30T08:50:14;26.70;57.00
63371;DHT22;72561;48.336;14.472;2023-09-30T08:53:36;26.70;57.00
63371;DHT22;72561;48.336;14.472;2023-09-30T08:56:57;26.70;57.00
63371;DHT22;72561;48.336;14.472;2023-09-30T09:00:21;26.70;57.00
63371;DHT22;72561;48.336;14.472;2023-09-30T09:03:43;26.70;57.00
63371;DHT22;72561;48.336;14.472;2023-09-30T09:07:04;26.70;57.00
63371;DHT22;72561;48.336;14.472;2023-09-30T09:10:25;26.80;57.00
63371;DHT22;72561;48.336;14.472;2023-09-30T09:13:47;26.80;57.00
63371;DHT22;72561;48.336;14.472;2023-09-30T09:17:11;26.80;57.00
63371;DHT22;72561;48.336;14.472;2023-09-30T09:20:33;26.80;57.00
63371;DHT22;72561;48.336;14.472;2023-09-30T09:23:54;26.80;57.10
63371;DHT22;72561;48.336;14.472;2023-09-30T09:27:15;26.80;57.20
63371;DHT22;72561;48.336;14.472;2023-09-30T09:30:38;26.90;57.40
63371;DHT22;72561;48.336;14.472;2023-09-30T09:33:59;26.90;57.40
63371;DHT22;72561;48.336;14.472;2023-09-30T09:37:22;27.00;57.50
63371;DHT22;72561;48.336;14.472;2023-09-30T09:40:43;27.00;57.50
63371;DHT22;72561;48.336;14.472;2023-09-30T09:44:05;27.00;57.40
63371;DHT22;72561;48.336;14.472;2023-09-30T09:47:26;27.10;57.40
63371;DHT22;72561;48.336;14.472;2023-09-30T09:50:48;27.10;57.40
63371;DHT22;72561;48.336;14.472;2023-09-30T09:54:11;27.10;57.40
63371;DHT22;72561;48.336;14.472;2023-09-30T09:57:32;27.20;57.40
63371;DHT22;72561;48.336;14.472;2023-09-30T10:00:56;27.20;57.40
63371;DHT22;72561;48.336;14.472;2023-09-30T10:04:17;27.20;57.30
63371;DHT22;72561;48.336;14.472;2023-09-30T10:07:41;27.20;57.30
63371;DHT22;72561;48.336;14.472;2023-09-30T10:11:06;27.30;57.40
63371;DHT22;72561;48.336;14.472;2023-09-30T10:14:31;27.30;57.30
63371;DHT22;72561;48.336;14.472;2023-09-30T10:17:58;27.30;57.30
63371;DHT22;72561;48.336;14.472;2023-09-30T10:21:19;27.30;57.20
63371;DHT22;72561;48.336;14.472;2023-09-30T10:24:40;27.30;57.20
63371;DHT22;72561;48.336;14.472;2023-09-30T10:28:32;27.40;57.20
63371;DHT22;72561;48.336;14.472;2023-09-30T10:31:58;27.40;57.10
63371;DHT22;72561;48.336;14.472;2023-09-30T10:35:21;27.40;57.10
63371;DHT22;72561;48.336;14.472;2023-09-30T10:39:02;27.40;57.10
63371;DHT22;72561;48.336;14.472;2023-09-30T10:42:44;27.40;57.00
63371;DHT22;72561;48.336;14.472;2023-09-30T10:46:31;27.40;57.00
63371;DHT22;72561;48.336;14.472;2023-09-30T10:49:53;27.40;56.90
63371;DHT22;72561;48.336;14.472;2023-09-30T10:53:14;27.50;57.00
63371;DHT22;72561;48.336;14.472;2023-09-30T10:56:35;27.50;57.00
63371;DHT22;72561;48.336;14.472;2023-09-30T11:00:09;27.50;57.00
63371;DHT22;72561;48.336;14.472;2023-09-30T11:03:32;27.50;56.90
63371;DHT22;72561;48.336;14.472;2023-09-30T11:06:53;27.50;57.00
63371;DHT22;72561;48.336;14.472;2023-09-30T11:10:16;27.60;57.00
63371;DHT22;72561;48.336;14.472;2023-09-30T11:13:38;27.60;57.00
63371;DHT22;72561;48.336;14.472;2023-09-30T11:17:00;27.60;57.00
63371;DHT22;72561;48.336;14.472;2023-09-30T11:20:23;27.50;56.90
63371;DHT22;72561;48.336;14.472;2023-09-30T11:23:44;27.60;56.90
63371;DHT22;72561;48.336;14.472;2023-09-30T11:27:05;27.60;56.90
63371;DHT22;72561;48.336;14.472;2023-09-30T11:30:26;27.60;56.90
63371;DHT22;72561;48.336;14.472;2023-09-30T11:33:48;27.60;56.90
63371;DHT22;72561;48.336;14.472;2023-09-30T11:37:14;27.60;56.90
63371;DHT22;72561;48.336;14.472;2023-09-30T11:40:36;27.60;56.90
63371;DHT22;72561;48.336;14.472;2023-09-30T11:44:04;27.70;57.00
63371;DHT22;72561;48.336;14.472;2023-09-30T11:47:29;27.70;56.90
63371;DHT22;72561;48.336;14.472;2023-09-30T11:50:52;27.70;56.90
63371;DHT22;72561;48.336;14.472;2023-09-30T11:54:16;27.70;56.90
63371;DHT22;72561;48.336;14.472;2023-09-30T11:57:37;27.70;56.90
63371;DHT22;72561;48.336;14.472;2023-09-30T12:00:59;27.70;56.90
63371;DHT22;72561;48.336;14.472;2023-09-30T12:04:23;27.70;56.80
63371;DHT22;72561;48.336;14.472;2023-09-30T12:07:45;27.70;56.80
63371;DHT22;72561;48.336;14.472;2023-09-30T12:11:07;27.80;56.90
63371;DHT22;72561;48.336;14.472;2023-09-30T12:14:29;27.80;56.90
63371;DHT22;72561;48.336;14.472;2023-09-30T12:17:50;27.80;56.90
63371;DHT22;72561;48.336;14.472;2023-09-30T12:21:11;27.80;56.80
63371;DHT22;72561;48.336;14.472;2023-09-30T12:24:33;27.80;56.80
63371;DHT22;72561;48.336;14.472;2023-09-30T12:27:55;27.80;56.90
63371;DHT22;72561;48.336;14.472;2023-09-30T12:31:16;27.80;56.80
63371;DHT22;72561;48.336;14.472;2023-09-30T12:34:37;27.80;56.70
63371;DHT22;72561;48.336;14.472;2023-09-30T12:37:58;27.80;56.60
63371;DHT22;72561;48.336;14.472;2023-09-30T12:41:19;27.80;56.50
63371;DHT22;72561;48.336;14.472;2023-09-30T12:44:41;27.90;56.60
63371;DHT22;72561;48.336;14.472;2023-09-30T12:48:03;27.80;56.50
63371;DHT22;72561;48.336;14.472;2023-09-30T12:51:24;27.80;56.50
63371;DHT22;72561;48.336;14.472;2023-09-30T12:54:45;27.80;56.50
63371;DHT22;72561;48.336;14.472;2023-09-30T12:58:06;27.80;56.50
63371;DHT22;72561;48.336;14.472;2023-09-30T13:01:28;27.80;56.50
63371;DHT22;72561;48.336;14.472;2023-09-30T13:04:49;27.80;56.50
63371;DHT22;72561;48.336;14.472;2023-09-30T13:08:10;27.80;56.50
63371;DHT22;72561;48.336;14.472;2023-09-30T13:11:31;27.80;56.50
63371;DHT22;72561;48.336;14.472;2023-09-30T13:14:52;27.80;56.50
63371;DHT22;72561;48.336;14.472;2023-09-30T13:18:15;27.80;56.50
63371;DHT22;72561;48.336;14.472;2023-09-30T13:21:36;27.80;56.50
63371;DHT22;72561;48.336;14.472;2023-09-30T13:24:57;27.80;56.50
63371;DHT22;72561;48.336;14.472;2023-09-30T13:28:18;27.70;56.50
63371;DHT22;72561;48.336;14.472;2023-09-30T13:31:39;27.80;56.60
63371;DHT22;72561;48.336;14.472;2023-09-30T13:35:01;27.70;56.50
63371;DHT22;72561;48.336;14.472;2023-09-30T13:38:22;27.70;56.50
63371;DHT22;72561;48.336;14.472;2023-09-30T13:41:43;27.70;56.50
63371;DHT22;72561;48.336;14.472;2023-09-30T13:45:05;27.70;56.50
63371;DHT22;72561;48.336;14.472;2023-09-30T13:48:27;27.70;56.60
63371;DHT22;72561;48.336;14.472;2023-09-30T13:51:49;27.70;56.60
63371;DHT22;72561;48.336;14.472;2023-09-30T13:55:10;27.70;56.60
63371;DHT22;72561;48.336;14.472;2023-09-30T13:58:31;27.70;56.60
63371;DHT22;72561;48.336;14.472;2023-09-30T14:01:52;27.60;56.60
63371;DHT22;72561;48.336;14.472;2023-09-30T14:05:13;27.60;56.60
63371;DHT22;72561;48.336;14.472;2023-09-30T14:08:35;27.60;56.60
63371;DHT22;72561;48.336;14.472;2023-09-30T14:11:57;27.60;56.70
63371;DHT22;72561;48.336;14.472;2023-09-30T14:15:18;27.60;56.70
63371;DHT22;72561;48.336;14.472;2023-09-30T14:18:39;27.60;56.60
63371;DHT22;72561;48.336;14.472;2023-09-30T14:22:00;27.60;56.70
63371;DHT22;72561;48.336;14.472;2023-09-30T14:25:23;27.60;56.70
63371;DHT22;72561;48.336;14.472;2023-09-30T14:28:44;27.50;56.80
63371;DHT22;72561;48.336;14.472;2023-09-30T14:32:05;27.50;56.80
63371;DHT22;72561;48.336;14.472;2023-09-30T14:35:26;27.50;56.80
63371;DHT22;72561;48.336;14.472;2023-09-30T14:38:47;27.50;56.90
63371;DHT22;72561;48.336;14.472;2023-09-30T14:42:09;27.50;56.90
63371;DHT22;72561;48.336;14.472;2023-09-30T14:45:30;27.50;57.00
63371;DHT22;72561;48.336;14.472;2023-09-30T14:48:51;27.50;57.00
63371;DHT22;72561;48.336;14.472;2023-09-30T14:52:12;27.50;57.10
63371;DHT22;72561;48.336;14.472;2023-09-30T14:55:33;27.50;57.10
63371;DHT22;72561;48.336;14.472;2023-09-30T14:58:56;27.50;57.20
63371;DHT22;72561;48.336;14.472;2023-09-30T15:02:17;27.50;57.10
63371;DHT22;72561;48.336;14.472;2023-09-30T15:05:38;27.50;57.10
63371;DHT22;72561;48.336;14.472;2023-09-30T15:08:59;27.50;57.10
63371;DHT22;72561;48.336;14.472;2023-09-30T15:12:20;27.50;57.20
63371;DHT22;72561;48.336;14.472;2023-09-30T15:15:42;27.50;57.20
63371;DHT22;72561;48.336;14.472;2023-09-30T15:19:03;27.50;57.20
63371;DHT22;72561;48.336;14.472;2023-09-30T15:22:24;27.50;57.20
63371;DHT22;72561;48.336;14.472;2023-09-30T15:25:45;27.50;57.20
63371;DHT22;72561;48.336;14.472;2023-09-30T15:29:06;27.50;57.20
63371;DHT22;72561;48.336;14.472;2023-09-30T15:32:29;27.50;57.20
63371;DHT22;72561;48.336;14.472;2023-09-30T15:35:50;27.50;57.20
63371;DHT22;72561;48.336;14.472;2023-09-30T15:39:11;27.50;57.20
63371;DHT22;72561;48.336;14.472;2023-09-30T15:42:32;27.50;57.20
63371;DHT22;72561;48.336;14.472;2023-09-30T15:45:53;27.50;57.20
63371;DHT22;72561;48.336;14.472;2023-09-30T15:49:16;27.50;57.20
63371;DHT22;72561;48.336;14.472;2023-09-30T15:52:37;27.50;57.20
63371;DHT22;72561;48.336;14.472;2023-09-30T15:55:58;27.50;57.20
63371;DHT22;72561;48.336;14.472;2023-09-30T15:59:19;27.50;57.20
63371;DHT22;72561;48.336;14.472;2023-09-30T16:02:40;27.50;57.10
63371;DHT22;72561;48.336;14.472;2023-09-30T16:06:05;27.50;57.00
63371;DHT22;72561;48.336;14.472;2023-09-30T16:09:26;27.50;57.00
63371;DHT22;72561;48.336;14.472;2023-09-30T16:12:48;27.50;56.90
63371;DHT22;72561;48.336;14.472;2023-09-30T16:16:10;27.50;57.00
63371;DHT22;72561;48.336;14.472;2023-09-30T16:19:31;27.50;56.90
63371;DHT22;72561;48.336;14.472;2023-09-30T16:22:53;27.50;56.90
63371;DHT22;72561;48.336;14.472;2023-09-30T16:26:14;27.40;56.80
63371;DHT22;72561;48.336;14.472;2023-09-30T16:32:33;27.50;56.40
63371;DHT22;72561;48.336;14.472;2023-09-30T16:35:54;27.40;56.80
63371;DHT22;72561;48.336;14.472;2023-09-30T16:39:16;27.40;56.90
63371;DHT22;72561;48.336;14.472;2023-09-30T16:42:37;27.40;56.90
63371;DHT22;72561;48.336;14.472;2023-09-30T16:45:59;27.40;57.00
63371;DHT22;72561;48.336;14.472;2023-09-30T16:49:22;27.30;56.90
63371;DHT22;72561;48.336;14.472;2023-09-30T16:52:43;27.30;56.90
63371;DHT22;72561;48.336;14.472;2023-09-30T16:56:04;27.30;57.00
63371;DHT22;72561;48.336;14.472;2023-09-30T16:59:26;27.30;57.00
63371;DHT22;72561;48.336;14.472;2023-09-30T17:02:47;27.30;57.00
63371;DHT22;72561;48.336;14.472;2023-09-30T17:06:10;27.30;57.10
63371;DHT22;72561;48.336;14.472;2023-09-30T17:09:31;27.30;57.10
63371;DHT22;72561;48.336;14.472;2023-09-30T17:12:52;27.30;57.20
63371;DHT22;72561;48.336;14.472;2023-09-30T17:16:17;27.30;57.10
63371;DHT22;72561;48.336;14.472;2023-09-30T17:19:38;27.20;57.10
63371;DHT22;72561;48.336;14.472;2023-09-30T17:25:21;27.20;56.50
63371;DHT22;72561;48.336;14.472;2023-09-30T17:28:42;27.20;57.20
63371;DHT22;72561;48.336;14.472;2023-09-30T17:32:03;27.20;57.90
63371;DHT22;72561;48.336;14.472;2023-09-30T17:35:24;27.20;57.20
63371;DHT22;72561;48.336;14.472;2023-09-30T17:38:45;27.20;57.20
63371;DHT22;72561;48.336;14.472;2023-09-30T17:43:46;27.20;56.70
63371;DHT22;72561;48.336;14.472;2023-09-30T17:48:38;27.10;56.60
63371;DHT22;72561;48.336;14.472;2023-09-30T17:51:59;27.20;57.30
63371;DHT22;72561;48.336;14.472;2023-09-30T17:55:20;27.10;57.20
63371;DHT22;72561;48.336;14.472;2023-09-30T17:58:41;27.10;57.30
63371;DHT22;72561;48.336;14.472;2023-09-30T18:02:03;27.10;57.30
63371;DHT22;72561;48.336;14.472;2023-09-30T18:06:04;27.10;56.70
63371;DHT22;72561;48.336;14.472;2023-09-30T18:09:26;27.10;57.30
63371;DHT22;72561;48.336;14.472;2023-09-30T18:12:47;27.10;57.40
63371;DHT22;72561;48.336;14.472;2023-09-30T18:16:08;27.10;57.40
63371;DHT22;72561;48.336;14.472;2023-09-30T18:19:29;27.10;57.40
63371;DHT22;72561;48.336;14.472;2023-09-30T18:22:52;27.00;57.30
63371;DHT22;72561;48.336;14.472;2023-09-30T18:26:13;27.00;57.30
63371;DHT22;72561;48.336;14.472;2023-09-30T18:29:34;27.00;57.30
63371;DHT22;72561;48.336;14.472;2023-09-30T18:32:55;27.00;57.30
63371;DHT22;72561;48.336;14.472;2023-09-30T18:39:12;27.00;56.70
63371;DHT22;72561;48.336;14.472;2023-09-30T18:42:33;27.00;57.30
63371;DHT22;72561;48.336;14.472;2023-09-30T18:48:15;27.00;56.80
63371;DHT22;72561;48.336;14.472;2023-09-30T18:51:36;27.00;57.40
63371;DHT22;72561;48.336;14.472;2023-09-30T18:54:57;26.90;57.40
63371;DHT22;72561;48.336;14.472;2023-09-30T18:58:18;26.90;57.30
63371;DHT22;72561;48.336;14.472;2023-09-30T19:01:39;26.90;57.40
63371;DHT22;72561;48.336;14.472;2023-09-30T19:05:02;26.90;57.40
63371;DHT22;72561;48.336;14.472;2023-09-30T19:09:42;26.90;56.80
63371;DHT22;72561;48.336;14.472;2023-09-30T19:13:03;26.90;57.40
63371;DHT22;72561;48.336;14.472;2023-09-30T19:16:24;26.90;57.40
63371;DHT22;72561;48.336;14.472;2023-09-30T19:19:45;26.90;57.40
63371;DHT22;72561;48.336;14.472;2023-09-30T19:27:23;26.90;56.80
63371;DHT22;72561;48.336;14.472;2023-09-30T19:30:44;26.90;57.40
63371;DHT22;72561;48.336;14.472;2023-09-30T19:34:05;26.90;57.40
63371;DHT22;72561;48.336;14.472;2023-09-30T19:37:26;26.90;57.50
63371;DHT22;72561;48.336;14.472;2023-09-30T19:40:47;26.90;57.60
63371;DHT22;72561;48.336;14.472;2023-09-30T19:44:21;26.90;57.10
63371;DHT22;72561;48.336;14.472;2023-09-30T19:47:42;26.90;57.70
63371;DHT22;72561;48.336;14.472;2023-09-30T19:51:03;26.90;57.60
63371;DHT22;72561;48.336;14.472;2023-09-30T19:54:24;26.90;57.60
63371;DHT22;72561;48.336;14.472;2023-09-30T19:57:45;26.90;57.60
63371;DHT22;72561;48.336;14.472;2023-09-30T20:01:08;26.90;57.60
63371;DHT22;72561;48.336;14.472;2023-09-30T20:04:29;26.90;57.60
63371;DHT22;72561;48.336;14.472;2023-09-30T20:07:50;26.90;57.50
63371;DHT22;72561;48.336;14.472;2023-09-30T20:11:19;26.90;58.20
63371;DHT22;72561;48.336;14.472;2023-09-30T20:14:40;26.90;57.50
63371;DHT22;72561;48.336;14.472;2023-09-30T20:18:03;26.90;57.60
63371;DHT22;72561;48.336;14.472;2023-09-30T20:21:24;26.90;57.60
63371;DHT22;72561;48.336;14.472;2023-09-30T20:24:45;26.80;57.50
63371;DHT22;72561;48.336;14.472;2023-09-30T20:28:06;26.80;57.50
63371;DHT22;72561;48.336;14.472;2023-09-30T20:31:27;26.80;57.50
63371;DHT22;72561;48.336;14.472;2023-09-30T20:34:50;26.80;57.50
63371;DHT22;72561;48.336;14.472;2023-09-30T20:38:11;26.80;57.60
63371;DHT22;72561;48.336;14.472;2023-09-30T20:41:32;26.80;57.60
63371;DHT22;72561;48.336;14.472;2023-09-30T20:44:53;26.70;57.50
63371;DHT22;72561;48.336;14.472;2023-09-30T20:48:14;26.70;57.60
63371;DHT22;72561;48.336;14.472;2023-09-30T20:51:37;26.70;57.60
63371;DHT22;72561;48.336;14.472;2023-09-30T20:54:58;26.70;57.70
63371;DHT22;72561;48.336;14.472;2023-09-30T20:58:19;26.70;57.70
63371;DHT22;72561;48.336;14.472;2023-09-30T21:01:40;26.70;57.70
63371;DHT22;72561;48.336;14.472;2023-09-30T21:05:01;26.70;57.70
63371;DHT22;72561;48.336;14.472;2023-09-30T21:08:50;26.60;57.10
63371;DHT22;72561;48.336;14.472;2023-09-30T21:12:11;26.60;57.60
63371;DHT22;72561;48.336;14.472;2023-09-30T21:15:32;26.60;57.70
63371;DHT22;72561;48.336;14.472;2023-09-30T21:18:53;26.60;57.60
63371;DHT22;72561;48.336;14.472;2023-09-30T21:22:14;26.50;57.70
63371;DHT22;72561;48.336;14.472;2023-09-30T21:25:37;26.60;57.70
63371;DHT22;72561;48.336;14.472;2023-09-30T21:28:58;26.60;57.80
63371;DHT22;72561;48.336;14.472;2023-09-30T21:32:19;26.50;57.70